Pearl City, Texas
Current Conditions -  °F | °C
As of 9:13 AM on Friday 19 Dec 2014 (Local Time) from KVCT Reporting Station
Heavy Rain Heavy Rain  
Wind Chill: 55°   Ceiling: 600
Heat Index: 55°   Visibility: 1mi
Dew Point: 53°   Wind: 21mph
Humidity: 93%   Direction: 10°N
Pressure: 30.04"   Gusts: 28mph
Location:  29.2421°N, 97.0692°W
Report Text: KVCT 191513Z 01018G24KT 1SM +RA BR BKN006 OVC021 13/12 A3004 RMK AO2 LTG DSNT SE AND S P0016 T01280117
Loading
Personal Weather Stations






























Interactive Weather Map New forecast layout! Learn more

10-Day Weather Forecast

Advertisements
Track Severe Weather on mobile